sensor_id;sensor_type;location;lat;lon;timestamp;pressure;altitude;pressure_sealevel;temperature;humidity
37778;BME280;23615;51.506;7.678;2024-02-26T00:01:55;98349.75;;;5.51;92.07
37778;BME280;23615;51.506;7.678;2024-02-26T00:04:20;98354.03;;;5.52;92.16
37778;BME280;23615;51.506;7.678;2024-02-26T00:06:47;98341.84;;;5.51;92.31
37778;BME280;23615;51.506;7.678;2024-02-26T00:09:13;98344.47;;;5.51;92.33
37778;BME280;23615;51.506;7.678;2024-02-26T00:11:38;98338.38;;;5.51;92.65
37778;BME280;23615;51.506;7.678;2024-02-26T00:14:04;98343.31;;;5.47;92.08
37778;BME280;23615;51.506;7.678;2024-02-26T00:16:29;98344.47;;;5.51;92.49
37778;BME280;23615;51.506;7.678;2024-02-26T00:18:55;98335.50;;;5.52;92.57
37778;BME280;23615;51.506;7.678;2024-02-26T00:21:20;98339.75;;;5.53;92.71
37778;BME280;23615;51.506;7.678;2024-02-26T00:23:46;98339.84;;;5.58;92.42
37778;BME280;23615;51.506;7.678;2024-02-26T00:26:11;98340.09;;;5.57;92.33
37778;BME280;23615;51.506;7.678;2024-02-26T00:28:37;98336.19;;;5.59;92.25
37778;BME280;23615;51.506;7.678;2024-02-26T00:31:02;98330.00;;;5.54;92.35
37778;BME280;23615;51.506;7.678;2024-02-26T00:33:27;98337.06;;;5.65;92.04
37778;BME280;23615;51.506;7.678;2024-02-26T00:35:53;98336.75;;;5.61;92.22
37778;BME280;23615;51.506;7.678;2024-02-26T00:38:18;98334.13;;;5.61;92.35
37778;BME280;23615;51.506;7.678;2024-02-26T00:40:43;98329.94;;;5.65;92.15
37778;BME280;23615;51.506;7.678;2024-02-26T00:43:09;98326.88;;;5.57;92.13
37778;BME280;23615;51.506;7.678;2024-02-26T00:45:34;98320.44;;;5.53;93.03
37778;BME280;23615;51.506;7.678;2024-02-26T00:47:59;98319.63;;;5.52;92.78
37778;BME280;23615;51.506;7.678;2024-02-26T00:50:31;98323.66;;;5.55;91.88
37778;BME280;23615;51.506;7.678;2024-02-26T00:52:56;98314.22;;;5.47;92.17
37778;BME280;23615;51.506;7.678;2024-02-26T00:55:21;98317.13;;;5.46;92.62
37778;BME280;23615;51.506;7.678;2024-02-26T00:57:46;98321.84;;;5.44;92.19
37778;BME280;23615;51.506;7.678;2024-02-26T01:00:12;98316.53;;;5.44;92.77
37778;BME280;23615;51.506;7.678;2024-02-26T01:02:38;98328.84;;;5.50;92.27
37778;BME280;23615;51.506;7.678;2024-02-26T01:05:04;98323.09;;;5.53;91.97
37778;BME280;23615;51.506;7.678;2024-02-26T01:07:31;98317.44;;;5.49;92.46
37778;BME280;23615;51.506;7.678;2024-02-26T01:10:01;98323.91;;;5.42;92.57
37778;BME280;23615;51.506;7.678;2024-02-26T01:12:26;98315.84;;;5.48;92.72
37778;BME280;23615;51.506;7.678;2024-02-26T01:14:51;98321.13;;;5.48;92.68
37778;BME280;23615;51.506;7.678;2024-02-26T01:17:17;98318.84;;;5.40;92.94
37778;BME280;23615;51.506;7.678;2024-02-26T01:19:42;98329.41;;;5.40;93.08
37778;BME280;23615;51.506;7.678;2024-02-26T01:22:08;98322.16;;;5.47;92.79
37778;BME280;23615;51.506;7.678;2024-02-26T01:24:33;98320.00;;;5.44;92.33
37778;BME280;23615;51.506;7.678;2024-02-26T01:26:58;98322.66;;;5.44;92.65
37778;BME280;23615;51.506;7.678;2024-02-26T01:29:24;98317.59;;;5.43;92.82
37778;BME280;23615;51.506;7.678;2024-02-26T01:31:49;98328.84;;;5.38;93.08
37778;BME280;23615;51.506;7.678;2024-02-26T01:34:14;98321.25;;;5.42;92.54
37778;BME280;23615;51.506;7.678;2024-02-26T01:36:40;98315.88;;;5.37;92.67
37778;BME280;23615;51.506;7.678;2024-02-26T01:39:05;98320.91;;;5.38;92.56
37778;BME280;23615;51.506;7.678;2024-02-26T01:41:31;98325.75;;;5.41;93.19
37778;BME280;23615;51.506;7.678;2024-02-26T01:43:56;98323.09;;;5.41;93.20
37778;BME280;23615;51.506;7.678;2024-02-26T01:46:22;98339.78;;;5.42;93.16
37778;BME280;23615;51.506;7.678;2024-02-26T01:48:48;98342.31;;;5.37;92.77
37778;BME280;23615;51.506;7.678;2024-02-26T01:51:15;98336.53;;;5.40;93.11
37778;BME280;23615;51.506;7.678;2024-02-26T01:53:41;98338.97;;;5.41;93.25
37778;BME280;23615;51.506;7.678;2024-02-26T01:56:07;98340.00;;;5.40;92.88
37778;BME280;23615;51.506;7.678;2024-02-26T01:58:34;98336.31;;;5.41;92.72
37778;BME280;23615;51.506;7.678;2024-02-26T02:01:00;98333.09;;;5.39;93.13
37778;BME280;23615;51.506;7.678;2024-02-26T02:03:27;98332.06;;;5.40;92.86
37778;BME280;23615;51.506;7.678;2024-02-26T02:05:53;98328.38;;;5.41;92.92
37778;BME280;23615;51.506;7.678;2024-02-26T02:08:18;98331.25;;;5.40;93.09
37778;BME280;23615;51.506;7.678;2024-02-26T02:10:44;98330.44;;;5.39;93.46
37778;BME280;23615;51.506;7.678;2024-02-26T02:13:12;98333.31;;;5.38;93.35
37778;BME280;23615;51.506;7.678;2024-02-26T02:15:37;98331.97;;;5.35;93.31
37778;BME280;23615;51.506;7.678;2024-02-26T02:18:03;98332.50;;;5.37;93.20
37778;BME280;23615;51.506;7.678;2024-02-26T02:20:33;98334.59;;;5.35;93.60
37778;BME280;23615;51.506;7.678;2024-02-26T02:22:59;98334.94;;;5.39;93.48
37778;BME280;23615;51.506;7.678;2024-02-26T02:25:24;98338.38;;;5.39;93.37
37778;BME280;23615;51.506;7.678;2024-02-26T02:27:50;98329.88;;;5.37;93.36
37778;BME280;23615;51.506;7.678;2024-02-26T02:30:17;98333.31;;;5.38;92.76
37778;BME280;23615;51.506;7.678;2024-02-26T02:32:42;98328.28;;;5.36;93.17
37778;BME280;23615;51.506;7.678;2024-02-26T02:35:08;98326.69;;;5.35;92.95
37778;BME280;23615;51.506;7.678;2024-02-26T02:37:33;98327.94;;;5.33;93.26
37778;BME280;23615;51.506;7.678;2024-02-26T02:39:59;98329.19;;;5.30;93.24
37778;BME280;23615;51.506;7.678;2024-02-26T02:42:25;98339.19;;;5.28;93.32
37778;BME280;23615;51.506;7.678;2024-02-26T02:44:51;98337.03;;;5.25;94.03
37778;BME280;23615;51.506;7.678;2024-02-26T02:47:16;98344.47;;;5.28;93.57
37778;BME280;23615;51.506;7.678;2024-02-26T02:49:41;98352.88;;;5.25;93.70
37778;BME280;23615;51.506;7.678;2024-02-26T02:52:06;98350.25;;;5.25;93.85
37778;BME280;23615;51.506;7.678;2024-02-26T02:54:32;98353.47;;;5.27;93.89
37778;BME280;23615;51.506;7.678;2024-02-26T02:56:57;98356.66;;;5.29;93.71
37778;BME280;23615;51.506;7.678;2024-02-26T02:59:23;98352.41;;;5.28;93.38
37778;BME280;23615;51.506;7.678;2024-02-26T03:01:48;98355.75;;;5.23;93.73
37778;BME280;23615;51.506;7.678;2024-02-26T03:04:15;98364.13;;;5.20;93.90
37778;BME280;23615;51.506;7.678;2024-02-26T03:06:40;98360.47;;;5.21;93.97
37778;BME280;23615;51.506;7.678;2024-02-26T03:09:06;98361.63;;;5.25;93.96
37778;BME280;23615;51.506;7.678;2024-02-26T03:11:31;98359.44;;;5.22;93.89
37778;BME280;23615;51.506;7.678;2024-02-26T03:13:56;98366.91;;;5.25;93.45
37778;BME280;23615;51.506;7.678;2024-02-26T03:16:22;98365.06;;;5.26;93.82
37778;BME280;23615;51.506;7.678;2024-02-26T03:18:47;98373.47;;;5.23;93.79
37778;BME280;23615;51.506;7.678;2024-02-26T03:21:12;98373.69;;;5.21;93.60
37778;BME280;23615;51.506;7.678;2024-02-26T03:23:38;98368.16;;;5.23;93.48
37778;BME280;23615;51.506;7.678;2024-02-26T03:26:03;98374.50;;;5.22;93.74
37778;BME280;23615;51.506;7.678;2024-02-26T03:28:29;98378.16;;;5.21;94.25
37778;BME280;23615;51.506;7.678;2024-02-26T03:30:54;98374.97;;;5.19;94.07
37778;BME280;23615;51.506;7.678;2024-02-26T03:33:20;98382.41;;;5.22;94.41
37778;BME280;23615;51.506;7.678;2024-02-26T03:35:45;98377.34;;;5.20;94.09
37778;BME280;23615;51.506;7.678;2024-02-26T03:38:10;98384.25;;;5.21;94.18
37778;BME280;23615;51.506;7.678;2024-02-26T03:40:35;98393.22;;;5.20;94.35
37778;BME280;23615;51.506;7.678;2024-02-26T03:43:01;98380.81;;;5.21;94.57
37778;BME280;23615;51.506;7.678;2024-02-26T03:45:27;98386.69;;;5.23;94.54
37778;BME280;23615;51.506;7.678;2024-02-26T03:47:53;98381.16;;;5.24;94.27
37778;BME280;23615;51.506;7.678;2024-02-26T03:50:18;98387.72;;;5.22;94.41
37778;BME280;23615;51.506;7.678;2024-02-26T03:52:43;98390.94;;;5.24;94.80
37778;BME280;23615;51.506;7.678;2024-02-26T03:55:08;98386.91;;;5.21;94.47
37778;BME280;23615;51.506;7.678;2024-02-26T03:57:36;98383.13;;;5.17;94.99
37778;BME280;23615;51.506;7.678;2024-02-26T04:00:01;98383.34;;;5.16;95.01
37778;BME280;23615;51.506;7.678;2024-02-26T04:02:26;98387.13;;;5.08;95.70
37778;BME280;23615;51.506;7.678;2024-02-26T04:04:52;98380.00;;;5.09;96.24
37778;BME280;23615;51.506;7.678;2024-02-26T04:07:17;98386.66;;;5.11;95.88
37778;BME280;23615;51.506;7.678;2024-02-26T04:09:42;98374.47;;;5.10;95.93
37778;BME280;23615;51.506;7.678;2024-02-26T04:12:08;98370.47;;;5.08;96.71
37778;BME280;23615;51.506;7.678;2024-02-26T04:14:33;98364.59;;;5.06;96.88
37778;BME280;23615;51.506;7.678;2024-02-26T04:17:00;98360.47;;;4.98;96.97
37778;BME280;23615;51.506;7.678;2024-02-26T04:19:25;98362.63;;;5.01;97.32
37778;BME280;23615;51.506;7.678;2024-02-26T04:21:50;98356.66;;;4.94;98.11
37778;BME280;23615;51.506;7.678;2024-02-26T04:24:16;98353.44;;;4.92;98.24
37778;BME280;23615;51.506;7.678;2024-02-26T04:26:41;98346.31;;;4.93;98.50
37778;BME280;23615;51.506;7.678;2024-02-26T04:29:06;98345.50;;;4.92;98.72
37778;BME280;23615;51.506;7.678;2024-02-26T04:31:32;98343.56;;;4.87;98.76
37778;BME280;23615;51.506;7.678;2024-02-26T04:33:58;98345.97;;;4.89;99.33
37778;BME280;23615;51.506;7.678;2024-02-26T04:36:23;98357.69;;;4.93;99.21
37778;BME280;23615;51.506;7.678;2024-02-26T04:38:51;98357.34;;;4.89;98.91
37778;BME280;23615;51.506;7.678;2024-02-26T04:41:16;98355.25;;;4.80;99.49
37778;BME280;23615;51.506;7.678;2024-02-26T04:43:41;98347.59;;;4.90;99.20
37778;BME280;23615;51.506;7.678;2024-02-26T04:46:08;98352.94;;;4.83;99.22
37778;BME280;23615;51.506;7.678;2024-02-26T04:48:34;98360.44;;;4.86;99.47
37778;BME280;23615;51.506;7.678;2024-02-26T04:51:00;98352.50;;;4.86;99.50
37778;BME280;23615;51.506;7.678;2024-02-26T04:53:25;98368.38;;;4.86;99.96
37778;BME280;23615;51.506;7.678;2024-02-26T04:55:50;98372.50;;;4.82;100.00
37778;BME280;23615;51.506;7.678;2024-02-26T04:58:17;98375.16;;;4.82;100.00
37778;BME280;23615;51.506;7.678;2024-02-26T05:00:42;98385.94;;;4.81;100.00
37778;BME280;23615;51.506;7.678;2024-02-26T05:03:07;98394.66;;;4.81;100.00
37778;BME280;23615;51.506;7.678;2024-02-26T05:05:33;98375.69;;;4.84;100.00
37778;BME280;23615;51.506;7.678;2024-02-26T05:07:58;98390.75;;;4.84;100.00
37778;BME280;23615;51.506;7.678;2024-02-26T05:10:23;98402.50;;;4.88;100.00
37778;BME280;23615;51.506;7.678;2024-02-26T05:12:49;98400.66;;;4.88;100.00
37778;BME280;23615;51.506;7.678;2024-02-26T05:15:14;98417.31;;;4.89;100.00
37778;BME280;23615;51.506;7.678;2024-02-26T05:17:44;98408.59;;;4.88;100.00
37778;BME280;23615;51.506;7.678;2024-02-26T05:20:09;98413.97;;;4.94;100.00
37778;BME280;23615;51.506;7.678;2024-02-26T05:22:34;98412.63;;;4.91;100.00
37778;BME280;23615;51.506;7.678;2024-02-26T05:25:00;98418.47;;;4.93;100.00
37778;BME280;23615;51.506;7.678;2024-02-26T05:27:25;98415.81;;;4.93;100.00
37778;BME280;23615;51.506;7.678;2024-02-26T05:29:50;98415.81;;;4.93;100.00
37778;BME280;23615;51.506;7.678;2024-02-26T05:32:17;98437.75;;;4.94;100.00
37778;BME280;23615;51.506;7.678;2024-02-26T05:34:42;98440.31;;;5.00;100.00
37778;BME280;23615;51.506;7.678;2024-02-26T05:37:07;98436.41;;;5.03;100.00
37778;BME280;23615;51.506;7.678;2024-02-26T05:39:32;98453.22;;;5.20;100.00
37778;BME280;23615;51.506;7.678;2024-02-26T05:41:58;98452.03;;;5.04;100.00
37778;BME280;23615;51.506;7.678;2024-02-26T05:44:26;98453.63;;;4.94;100.00
37778;BME280;23615;51.506;7.678;2024-02-26T05:46:52;98449.63;;;4.91;100.00
37778;BME280;23615;51.506;7.678;2024-02-26T05:49:17;98445.34;;;4.90;100.00
37778;BME280;23615;51.506;7.678;2024-02-26T05:51:42;98456.25;;;4.94;100.00
37778;BME280;23615;51.506;7.678;2024-02-26T05:54:08;98450.31;;;4.98;100.00
37778;BME280;23615;51.506;7.678;2024-02-26T05:56:33;98455.38;;;5.00;100.00
37778;BME280;23615;51.506;7.678;2024-02-26T05:58:58;98464.56;;;4.97;100.00
37778;BME280;23615;51.506;7.678;2024-02-26T06:01:24;98457.22;;;4.99;100.00
37778;BME280;23615;51.506;7.678;2024-02-26T06:03:50;98460.19;;;4.91;100.00
37778;BME280;23615;51.506;7.678;2024-02-26T06:06:16;98457.97;;;4.88;100.00
37778;BME280;23615;51.506;7.678;2024-02-26T06:08:41;98457.53;;;4.91;100.00
37778;BME280;23615;51.506;7.678;2024-02-26T06:11:07;98454.66;;;4.93;100.00
37778;BME280;23615;51.506;7.678;2024-02-26T06:13:33;98456.84;;;4.96;100.00
37778;BME280;23615;51.506;7.678;2024-02-26T06:15:59;98456.41;;;4.99;100.00
37778;BME280;23615;51.506;7.678;2024-02-26T06:18:24;98461.00;;;5.03;100.00
37778;BME280;23615;51.506;7.678;2024-02-26T06:20:49;98457.53;;;5.03;100.00
37778;BME280;23615;51.506;7.678;2024-02-26T06:23:15;98458.47;;;4.97;100.00
37778;BME280;23615;51.506;7.678;2024-02-26T06:25:40;98459.50;;;4.96;100.00
37778;BME280;23615;51.506;7.678;2024-02-26T06:28:07;98463.63;;;4.92;100.00
37778;BME280;23615;51.506;7.678;2024-02-26T06:30:33;98460.72;;;4.93;100.00
37778;BME280;23615;51.506;7.678;2024-02-26T06:32:58;98463.97;;;4.95;100.00
37778;BME280;23615;51.506;7.678;2024-02-26T06:35:23;98464.41;;;4.92;100.00
37778;BME280;23615;51.506;7.678;2024-02-26T06:37:49;98476.16;;;4.96;100.00
37778;BME280;23615;51.506;7.678;2024-02-26T06:40:17;98468.22;;;4.96;100.00
37778;BME280;23615;51.506;7.678;2024-02-26T06:42:43;98474.31;;;4.97;100.00
37778;BME280;23615;51.506;7.678;2024-02-26T06:45:09;98475.56;;;4.94;100.00
37778;BME280;23615;51.506;7.678;2024-02-26T06:47:34;98484.88;;;4.97;100.00
37778;BME280;23615;51.506;7.678;2024-02-26T06:50:00;98484.88;;;4.97;100.00
37778;BME280;23615;51.506;7.678;2024-02-26T06:52:26;98486.94;;;4.95;100.00
37778;BME280;23615;51.506;7.678;2024-02-26T06:54:51;98488.72;;;5.01;100.00
37778;BME280;23615;51.506;7.678;2024-02-26T06:57:20;98482.84;;;4.99;100.00
37778;BME280;23615;51.506;7.678;2024-02-26T06:59:46;98490.16;;;4.97;100.00
37778;BME280;23615;51.506;7.678;2024-02-26T07:02:15;98488.34;;;4.97;100.00
37778;BME280;23615;51.506;7.678;2024-02-26T07:04:41;98490.16;;;4.97;100.00
37778;BME280;23615;51.506;7.678;2024-02-26T07:07:07;98493.47;;;4.92;100.00
37778;BME280;23615;51.506;7.678;2024-02-26T07:09:33;98489.00;;;4.93;100.00
37778;BME280;23615;51.506;7.678;2024-02-26T07:11:58;98490.50;;;4.88;100.00
37778;BME280;23615;51.506;7.678;2024-02-26T07:14:23;98492.69;;;4.92;100.00
37778;BME280;23615;51.506;7.678;2024-02-26T07:16:49;98500.53;;;4.98;100.00
37778;BME280;23615;51.506;7.678;2024-02-26T07:19:15;98498.91;;;4.97;100.00
37778;BME280;23615;51.506;7.678;2024-02-26T07:21:40;98510.50;;;4.96;100.00
37778;BME280;23615;51.506;7.678;2024-02-26T07:24:05;98505.91;;;4.92;100.00
37778;BME280;23615;51.506;7.678;2024-02-26T07:26:31;98502.13;;;4.99;100.00
37778;BME280;23615;51.506;7.678;2024-02-26T07:28:57;98503.50;;;5.02;100.00
37778;BME280;23615;51.506;7.678;2024-02-26T07:31:22;98507.75;;;5.03;100.00
37778;BME280;23615;51.506;7.678;2024-02-26T07:33:47;98506.06;;;5.08;100.00
37778;BME280;23615;51.506;7.678;2024-02-26T07:36:12;98518.75;;;5.18;100.00
37778;BME280;23615;51.506;7.678;2024-02-26T07:38:38;98516.91;;;5.18;100.00
37778;BME280;23615;51.506;7.678;2024-02-26T07:41:03;98519.63;;;5.12;100.00
37778;BME280;23615;51.506;7.678;2024-02-26T07:43:29;98523.78;;;5.08;100.00
37778;BME280;23615;51.506;7.678;2024-02-26T07:45:54;98520.31;;;5.07;100.00
37778;BME280;23615;51.506;7.678;2024-02-26T07:48:19;98528.16;;;5.14;100.00
37778;BME280;23615;51.506;7.678;2024-02-26T07:50:45;98531.00;;;5.12;100.00
37778;BME280;23615;51.506;7.678;2024-02-26T07:53:10;98540.13;;;5.16;100.00
37778;BME280;23615;51.506;7.678;2024-02-26T07:55:35;98539.53;;;5.14;100.00
37778;BME280;23615;51.506;7.678;2024-02-26T07:58:01;98537.00;;;5.19;100.00
37778;BME280;23615;51.506;7.678;2024-02-26T08:00:26;98543.56;;;5.17;100.00
37778;BME280;23615;51.506;7.678;2024-02-26T08:02:51;98547.81;;;5.18;100.00
37778;BME280;23615;51.506;7.678;2024-02-26T08:05:17;98539.44;;;5.21;100.00
37778;BME280;23615;51.506;7.678;2024-02-26T08:07:42;98548.38;;;5.20;100.00
37778;BME280;23615;51.506;7.678;2024-02-26T08:10:07;98546.91;;;5.24;100.00
37778;BME280;23615;51.506;7.678;2024-02-26T08:12:33;98546.91;;;5.24;100.00
37778;BME280;23615;51.506;7.678;2024-02-26T08:14:58;98551.41;;;5.23;100.00
37778;BME280;23615;51.506;7.678;2024-02-26T08:17:24;98549.13;;;5.27;100.00
37778;BME280;23615;51.506;7.678;2024-02-26T08:19:49;98557.28;;;5.25;100.00
37778;BME280;23615;51.506;7.678;2024-02-26T08:22:14;98558.53;;;5.23;100.00
37778;BME280;23615;51.506;7.678;2024-02-26T08:24:42;98555.44;;;5.26;100.00
37778;BME280;23615;51.506;7.678;2024-02-26T08:27:07;98566.13;;;5.31;100.00
37778;BME280;23615;51.506;7.678;2024-02-26T08:29:33;98568.91;;;5.36;100.00
37778;BME280;23615;51.506;7.678;2024-02-26T08:31:58;98553.50;;;5.33;100.00
37778;BME280;23615;51.506;7.678;2024-02-26T08:34:24;98565.47;;;5.36;100.00
37778;BME280;23615;51.506;7.678;2024-02-26T08:36:50;98568.22;;;5.41;100.00
37778;BME280;23615;51.506;7.678;2024-02-26T08:39:16;98574.31;;;5.41;100.00
37778;BME280;23615;51.506;7.678;2024-02-26T08:41:43;98574.53;;;5.40;100.00
37778;BME280;23615;51.506;7.678;2024-02-26T08:44:08;98571.91;;;5.40;100.00
37778;BME280;23615;51.506;7.678;2024-02-26T08:46:33;98565.38;;;5.42;100.00
37778;BME280;23615;51.506;7.678;2024-02-26T08:48:58;98568.22;;;5.41;100.00
37778;BME280;23615;51.506;7.678;2024-02-26T08:51:24;98574.44;;;5.46;100.00
37778;BME280;23615;51.506;7.678;2024-02-26T08:53:49;98581.34;;;5.47;100.00
37778;BME280;23615;51.506;7.678;2024-02-26T08:56:16;98574.69;;;5.45;100.00
37778;BME280;23615;51.506;7.678;2024-02-26T08:58:44;98587.44;;;5.48;100.00
37778;BME280;23615;51.506;7.678;2024-02-26T09:01:09;98581.59;;;5.46;100.00
37778;BME280;23615;51.506;7.678;2024-02-26T09:03:34;98580.78;;;5.45;100.00
37778;BME280;23615;51.506;7.678;2024-02-26T09:06:00;98584.72;;;5.54;100.00
37778;BME280;23615;51.506;7.678;2024-02-26T09:08:25;98584.63;;;5.61;100.00
37778;BME280;23615;51.506;7.678;2024-02-26T09:10:50;98580.03;;;5.68;100.00
37778;BME280;23615;51.506;7.678;2024-02-26T09:13:16;98573.13;;;5.67;100.00
37778;BME280;23615;51.506;7.678;2024-02-26T09:15:41;98579.81;;;5.70;100.00
37778;BME280;23615;51.506;7.678;2024-02-26T09:18:06;98578.78;;;5.71;100.00
37778;BME280;23615;51.506;7.678;2024-02-26T09:20:31;98577.75;;;5.72;100.00
37778;BME280;23615;51.506;7.678;2024-02-26T09:22:57;98584.75;;;5.78;100.00
37778;BME280;23615;51.506;7.678;2024-02-26T09:25:22;98586.97;;;5.81;100.00
37778;BME280;23615;51.506;7.678;2024-02-26T09:27:47;98593.41;;;5.85;100.00
37778;BME280;23615;51.506;7.678;2024-02-26T09:30:13;98597.66;;;5.86;100.00
37778;BME280;23615;51.506;7.678;2024-02-26T09:32:39;98592.97;;;5.88;100.00
37778;BME280;23615;51.506;7.678;2024-02-26T09:35:08;98595.81;;;5.86;100.00
37778;BME280;23615;51.506;7.678;2024-02-26T09:37:33;98597.25;;;5.89;100.00
37778;BME280;23615;51.506;7.678;2024-02-26T09:39:59;98594.72;;;5.94;100.00
37778;BME280;23615;51.506;7.678;2024-02-26T09:42:25;98598.16;;;5.94;100.00
37778;BME280;23615;51.506;7.678;2024-02-26T09:44:54;98603.00;;;5.97;100.00
37778;BME280;23615;51.506;7.678;2024-02-26T09:47:21;98605.75;;;6.03;100.00
37778;BME280;23615;51.506;7.678;2024-02-26T09:49:48;98600.59;;;5.96;100.00
37778;BME280;23615;51.506;7.678;2024-02-26T09:52:15;98604.16;;;6.01;100.00
37778;BME280;23615;51.506;7.678;2024-02-26T09:54:41;98612.00;;;6.08;100.00
37778;BME280;23615;51.506;7.678;2024-02-26T09:57:09;98608.66;;;6.13;100.00
37778;BME280;23615;51.506;7.678;2024-02-26T09:59:39;98599.91;;;6.12;100.00
37778;BME280;23615;51.506;7.678;2024-02-26T10:02:10;98611.66;;;6.16;100.00
37778;BME280;23615;51.506;7.678;2024-02-26T10:04:36;98616.47;;;6.19;100.00
37778;BME280;23615;51.506;7.678;2024-02-26T10:07:02;98613.81;;;6.19;100.00
37778;BME280;23615;51.506;7.678;2024-02-26T10:09:29;98610.50;;;6.24;100.00
37778;BME280;23615;51.506;7.678;2024-02-26T10:11:54;98613.97;;;6.24;100.00
37778;BME280;23615;51.506;7.678;2024-02-26T10:14:20;98619.84;;;6.26;100.00
37778;BME280;23615;51.506;7.678;2024-02-26T10:16:46;98637.44;;;6.32;100.00
37778;BME280;23615;51.506;7.678;2024-02-26T10:19:25;98648.28;;;6.43;100.00
37778;BME280;23615;51.506;7.678;2024-02-26T10:21:56;98654.59;;;6.42;100.00
37778;BME280;23615;51.506;7.678;2024-02-26T10:24:21;98659.22;;;6.46;100.00
37778;BME280;23615;51.506;7.678;2024-02-26T10:26:46;98653.22;;;6.51;100.00
37778;BME280;23615;51.506;7.678;2024-02-26T10:29:12;98661.97;;;6.51;100.00
37778;BME280;23615;51.506;7.678;2024-02-26T10:31:37;98675.91;;;6.58;100.00
37778;BME280;23615;51.506;7.678;2024-02-26T10:34:03;98665.31;;;6.58;100.00
37778;BME280;23615;51.506;7.678;2024-02-26T10:36:28;98673.84;;;6.60;100.00
37778;BME280;23615;51.506;7.678;2024-02-26T10:38:54;98677.31;;;6.61;100.00
37778;BME280;23615;51.506;7.678;2024-02-26T10:41:20;98676.84;;;6.64;100.00
37778;BME280;23615;51.506;7.678;2024-02-26T10:43:47;98667.06;;;6.64;100.00
37778;BME280;23615;51.506;7.678;2024-02-26T10:46:12;98686.06;;;6.73;100.00
37778;BME280;23615;51.506;7.678;2024-02-26T10:48:37;98676.97;;;6.81;100.00
37778;BME280;23615;51.506;7.678;2024-02-26T10:51:03;98676.16;;;6.80;100.00
37778;BME280;23615;51.506;7.678;2024-02-26T10:53:29;98679.69;;;6.86;100.00
37778;BME280;23615;51.506;7.678;2024-02-26T10:56:01;98673.22;;;6.93;100.00
37778;BME280;23615;51.506;7.678;2024-02-26T10:58:28;98672.78;;;6.96;100.00
37778;BME280;23615;51.506;7.678;2024-02-26T11:00:56;98684.19;;;6.97;100.00
37778;BME280;23615;51.506;7.678;2024-02-26T11:03:22;98686.13;;;7.01;99.94
37778;BME280;23615;51.506;7.678;2024-02-26T11:05:50;98694.34;;;7.00;99.34
37778;BME280;23615;51.506;7.678;2024-02-26T11:08:18;98700.09;;;7.08;99.23
37778;BME280;23615;51.506;7.678;2024-02-26T11:10:47;98701.22;;;7.12;98.59
37778;BME280;23615;51.506;7.678;2024-02-26T11:13:14;98695.09;;;7.12;99.11
37778;BME280;23615;51.506;7.678;2024-02-26T11:15:40;98705.25;;;7.15;98.52
37778;BME280;23615;51.506;7.678;2024-02-26T11:18:06;98704.81;;;7.18;98.31
37778;BME280;23615;51.506;7.678;2024-02-26T11:20:33;98703.50;;;7.21;98.04
37778;BME280;23615;51.506;7.678;2024-02-26T11:22:59;98702.25;;;7.23;98.65
37778;BME280;23615;51.506;7.678;2024-02-26T11:25:24;98700.97;;;7.26;98.31
37778;BME280;23615;51.506;7.678;2024-02-26T11:28:01;98702.09;;;7.30;98.36
37778;BME280;23615;51.506;7.678;2024-02-26T11:30:30;98703.03;;;7.35;98.15
37778;BME280;23615;51.506;7.678;2024-02-26T11:32:56;98704.28;;;7.33;97.43
37778;BME280;23615;51.506;7.678;2024-02-26T11:35:23;98706.50;;;7.36;97.32
37778;BME280;23615;51.506;7.678;2024-02-26T11:37:55;98708.09;;;7.37;97.25
37778;BME280;23615;51.506;7.678;2024-02-26T11:40:23;98713.41;;;7.37;96.30
37778;BME280;23615;51.506;7.678;2024-02-26T11:42:49;98711.56;;;7.37;95.86
37778;BME280;23615;51.506;7.678;2024-02-26T11:48:04;98713.72;;;7.40;95.43
37778;BME280;23615;51.506;7.678;2024-02-26T11:50:36;98712.13;;;7.39;95.18
37778;BME280;23615;51.506;7.678;2024-02-26T11:55:48;98715.47;;;7.46;95.93
37778;BME280;23615;51.506;7.678;2024-02-26T11:58:14;98716.81;;;7.49;95.55
37778;BME280;23615;51.506;7.678;2024-02-26T12:00:40;98719.25;;;7.50;95.01
37778;BME280;23615;51.506;7.678;2024-02-26T12:03:06;98723.44;;;7.46;94.69
37778;BME280;23615;51.506;7.678;2024-02-26T12:05:34;98727.19;;;7.50;95.46
37778;BME280;23615;51.506;7.678;2024-02-26T12:08:06;98723.94;;;7.60;95.54
37778;BME280;23615;51.506;7.678;2024-02-26T12:10:33;98726.59;;;7.60;94.91
37778;BME280;23615;51.506;7.678;2024-02-26T12:13:15;98735.59;;;7.59;94.86
37778;BME280;23615;51.506;7.678;2024-02-26T12:15:44;98737.22;;;7.60;95.31
37778;BME280;23615;51.506;7.678;2024-02-26T12:18:16;98745.19;;;7.60;95.42
37778;BME280;23615;51.506;7.678;2024-02-26T12:20:42;98752.91;;;7.62;95.86
37778;BME280;23615;51.506;7.678;2024-02-26T12:23:09;98759.69;;;7.69;95.83
37778;BME280;23615;51.506;7.678;2024-02-26T12:25:39;98755.66;;;7.67;95.68
37778;BME280;23615;51.506;7.678;2024-02-26T12:28:04;98758.41;;;7.72;95.20
37778;BME280;23615;51.506;7.678;2024-02-26T12:30:30;98757.03;;;7.69;95.50
37778;BME280;23615;51.506;7.678;2024-02-26T12:32:56;98759.78;;;7.74;95.32
37778;BME280;23615;51.506;7.678;2024-02-26T12:35:23;98760.34;;;7.76;95.75
37778;BME280;23615;51.506;7.678;2024-02-26T12:37:48;98753.03;;;7.83;95.37
37778;BME280;23615;51.506;7.678;2024-02-26T12:40:16;98756.06;;;7.87;95.90
37778;BME280;23615;51.506;7.678;2024-02-26T12:42:42;98753.72;;;7.91;95.96
37778;BME280;23615;51.506;7.678;2024-02-26T12:45:11;98756.25;;;7.97;96.15
37778;BME280;23615;51.506;7.678;2024-02-26T12:47:41;98746.75;;;8.01;95.98
37778;BME280;23615;51.506;7.678;2024-02-26T12:50:07;98749.09;;;7.98;95.66
37778;BME280;23615;51.506;7.678;2024-02-26T12:52:34;98751.41;;;7.94;96.10
37778;BME280;23615;51.506;7.678;2024-02-26T12:55:02;98750.03;;;7.92;96.60
37778;BME280;23615;51.506;7.678;2024-02-26T12:57:31;98756.38;;;7.91;96.27
37778;BME280;23615;51.506;7.678;2024-02-26T12:59:58;98751.09;;;7.91;96.49
37778;BME280;23615;51.506;7.678;2024-02-26T13:02:25;98759.16;;;7.84;97.32
37778;BME280;23615;51.506;7.678;2024-02-26T13:04:51;98763.44;;;7.85;96.78